Time;durP1;ratioP1;P1;durP2;ratioP2;P2;SDS_P1;SDS_P2;PMS_P1;PMS_P2;Temp;Humidity;BMP_temperature;BMP_pressure;BME280_temperature;BME280_humidity;BME280_pressure;Samples;Min_cycle;Max_cycle;Signal;HPM_P1;HPM_P2
2023/05/14 00:01:39;;;;;;;19.42;7.75;;;;;;;;;;4987243;28;20439;-83
2023/05/14 00:04:05;;;;;;;10.38;6.03;;;;;;;;;;4984575;28;20038;-83
2023/05/14 00:06:31;;;;;;;12.48;6.75;;;;;;;;;;4985608;28;20031;-82
2023/05/14 00:08:57;;;;;;;16.45;6.47;;;;;;;;;;4986223;28;20041;-82
2023/05/14 00:11:23;;;;;;;10.25;6.43;;;;;;;;;;4982473;28;20034;-85
2023/05/14 00:13:50;;;;;;;9.80;6.20;;;;;;;;;;4988678;28;20107;-85
2023/05/14 00:16:16;;;;;;;12.68;6.55;;;;;;;;;;4982325;28;20384;-82
2023/05/14 00:18:42;;;;;;;9.25;6.45;;;;;;;;;;4986000;28;20042;-82
2023/05/14 00:21:08;;;;;;;8.45;5.80;;;;;;;;;;4985516;28;20034;-83
2023/05/14 00:23:34;;;;;;;13.35;6.07;;;;;;;;;;4969335;28;20057;-82
2023/05/14 00:26:00;;;;;;;14.20;6.50;;;;;;;;;;4986611;28;20069;-80
2023/05/14 00:28:26;;;;;;;11.52;6.07;;;;;;;;;;4984082;28;20054;-83
2023/05/14 00:30:52;;;;;;;12.10;6.13;;;;;;;;;;4985605;28;20023;-83
2023/05/14 00:33:18;;;;;;;13.07;6.63;;;;;;;;;;4983910;28;20034;-81
2023/05/14 00:35:44;;;;;;;14.48;6.93;;;;;;;;;;4988000;28;20081;-82
2023/05/14 00:38:15;;;;;;;12.10;6.03;;;;;;;;;;4984280;28;20392;-83
2023/05/14 00:40:44;;;;;;;10.63;5.78;;;;;;;;;;4988225;28;20535;-81
2023/05/14 00:43:10;;;;;;;9.52;6.22;;;;;;;;;;4983628;28;20041;-83
2023/05/14 00:45:36;;;;;;;14.10;6.40;;;;;;;;;;4986257;28;20064;-84
2023/05/14 00:48:03;;;;;;;10.27;6.47;;;;;;;;;;4989562;28;20035;-87
2023/05/14 00:50:29;;;;;;;10.30;6.78;;;;;;;;;;4988945;28;20037;-82
2023/05/14 00:52:55;;;;;;;10.57;6.82;;;;;;;;;;4970395;28;20042;-80
2023/05/14 00:55:21;;;;;;;10.52;6.80;;;;;;;;;;4989313;28;20044;-81
2023/05/14 00:57:47;;;;;;;10.45;6.57;;;;;;;;;;4990240;28;20095;-81
2023/05/14 01:00:13;;;;;;;11.60;7.20;;;;;;;;;;4971969;28;20045;-83
2023/05/14 01:02:39;;;;;;;9.20;7.32;;;;;;;;;;4988431;28;20380;-81
2023/05/14 01:05:06;;;;;;;11.45;7.53;;;;;;;;;;4987341;28;20154;-83
2023/05/14 01:07:48;;;;;;;18.40;7.82;;;;;;;;;;4988251;28;20643;-83
2023/05/14 01:10:18;;;;;;;11.00;7.70;;;;;;;;;;4988354;28;20096;-83
2023/05/14 01:12:55;;;;;;;14.10;7.07;;;;;;;;;;4989353;28;20167;-82
2023/05/14 01:15:24;;;;;;;11.45;7.45;;;;;;;;;;4986599;28;20157;-81
2023/05/14 01:17:56;;;;;;;12.15;8.07;;;;;;;;;;4987380;28;20109;-82
2023/05/14 01:20:22;;;;;;;13.07;7.55;;;;;;;;;;4984419;28;20034;-82
2023/05/14 01:22:48;;;;;;;8.98;6.65;;;;;;;;;;4989056;28;20043;-82
2023/05/14 01:25:14;;;;;;;8.57;6.90;;;;;;;;;;4987668;28;20026;-82
2023/05/14 01:27:54;;;;;;;15.38;7.63;;;;;;;;;;4988778;28;20057;-80
2023/05/14 01:30:26;;;;;;;10.93;7.72;;;;;;;;;;4985374;28;20038;-80
2023/05/14 01:32:54;;;;;;;11.30;8.65;;;;;;;;;;4985219;28;20569;-82
2023/05/14 01:35:22;;;;;;;13.75;6.72;;;;;;;;;;4987268;28;20026;-81
2023/05/14 01:37:48;;;;;;;11.95;7.72;;;;;;;;;;4988222;28;20209;-80
2023/05/14 01:40:14;;;;;;;12.57;7.85;;;;;;;;;;4987329;28;20050;-81
2023/05/14 01:42:40;;;;;;;11.90;7.60;;;;;;;;;;4987384;28;20050;-80
2023/05/14 01:45:07;;;;;;;14.73;9.10;;;;;;;;;;4988351;28;20046;-81
2023/05/14 01:47:33;;;;;;;19.83;8.95;;;;;;;;;;4988427;28;20065;-81
2023/05/14 01:49:59;;;;;;;19.13;9.63;;;;;;;;;;4987540;28;20062;-81
2023/05/14 01:52:25;;;;;;;14.98;7.97;;;;;;;;;;4981340;28;20587;-82
2023/05/14 01:54:51;;;;;;;12.07;8.75;;;;;;;;;;4989036;28;20546;-82
2023/05/14 01:57:17;;;;;;;11.98;8.35;;;;;;;;;;4985605;28;20046;-82
2023/05/14 01:59:43;;;;;;;12.25;7.53;;;;;;;;;;4985770;28;20045;-82
2023/05/14 02:02:09;;;;;;;10.95;7.47;;;;;;;;;;4987523;28;20039;-82
2023/05/14 02:04:35;;;;;;;15.05;8.25;;;;;;;;;;4972894;28;20034;-78
2023/05/14 02:07:01;;;;;;;10.75;7.55;;;;;;;;;;4987267;28;20393;-81
2023/05/14 02:09:27;;;;;;;14.65;8.43;;;;;;;;;;4969988;28;20039;-82
2023/05/14 02:11:53;;;;;;;18.30;8.38;;;;;;;;;;4988141;28;20523;-81
2023/05/14 02:14:19;;;;;;;18.05;8.20;;;;;;;;;;4971227;28;20030;-83
2023/05/14 02:16:45;;;;;;;10.52;7.38;;;;;;;;;;4987292;28;20423;-82
2023/05/14 02:19:11;;;;;;;12.07;8.60;;;;;;;;;;4985415;28;20046;-82
2023/05/14 02:21:37;;;;;;;10.55;8.55;;;;;;;;;;4978912;28;20070;-81
2023/05/14 02:24:03;;;;;;;16.08;9.18;;;;;;;;;;4987164;28;20057;-82
2023/05/14 02:26:29;;;;;;;22.70;11.07;;;;;;;;;;4970738;28;20106;-82
2023/05/14 02:28:55;;;;;;;19.08;8.93;;;;;;;;;;4986884;28;20034;-83
2023/05/14 02:31:21;;;;;;;19.25;9.80;;;;;;;;;;4989004;28;20069;-83
2023/05/14 02:33:47;;;;;;;13.50;8.40;;;;;;;;;;4988875;28;20040;-80
2023/05/14 02:36:13;;;;;;;18.55;8.90;;;;;;;;;;4987213;28;20105;-82
2023/05/14 02:38:39;;;;;;;16.63;8.88;;;;;;;;;;4989488;28;20058;-80
2023/05/14 02:41:05;;;;;;;14.13;9.50;;;;;;;;;;4987500;28;20066;-79
2023/05/14 02:43:31;;;;;;;15.55;9.60;;;;;;;;;;4986614;28;20455;-80
2023/05/14 02:45:57;;;;;;;9.90;8.07;;;;;;;;;;4986059;28;20057;-81
2023/05/14 02:48:23;;;;;;;15.80;9.30;;;;;;;;;;4985629;28;20065;-81
2023/05/14 02:50:50;;;;;;;14.45;9.30;;;;;;;;;;4985337;28;20034;-81
2023/05/14 02:53:16;;;;;;;15.57;9.00;;;;;;;;;;4983843;28;20515;-79
2023/05/14 02:55:42;;;;;;;16.85;10.10;;;;;;;;;;4981981;28;20041;-81
2023/05/14 02:58:09;;;;;;;13.70;9.80;;;;;;;;;;4970147;28;20038;-80
2023/05/14 03:00:35;;;;;;;14.85;8.43;;;;;;;;;;4985638;28;20455;-78
2023/05/14 03:03:01;;;;;;;17.63;8.88;;;;;;;;;;4986470;28;20499;-82
2023/05/14 03:05:27;;;;;;;21.08;8.75;;;;;;;;;;4986877;28;20206;-82
2023/05/14 03:07:53;;;;;;;15.50;9.10;;;;;;;;;;4986400;28;20251;-81
2023/05/14 03:10:19;;;;;;;11.88;8.70;;;;;;;;;;4984760;28;20034;-81
2023/05/14 03:12:46;;;;;;;14.45;9.23;;;;;;;;;;4986352;28;20030;-81
2023/05/14 03:15:12;;;;;;;22.50;9.73;;;;;;;;;;4991721;28;20018;-82
2023/05/14 03:17:38;;;;;;;15.82;9.60;;;;;;;;;;4982762;28;20088;-80
2023/05/14 03:20:04;;;;;;;16.02;9.65;;;;;;;;;;4987482;28;20054;-81
2023/05/14 03:22:30;;;;;;;17.38;9.90;;;;;;;;;;4980752;28;20126;-82
2023/05/14 03:24:56;;;;;;;12.50;8.32;;;;;;;;;;4986958;28;20029;-82
2023/05/14 03:27:22;;;;;;;19.90;9.07;;;;;;;;;;4961638;28;20046;-80
2023/05/14 03:29:48;;;;;;;20.83;10.27;;;;;;;;;;4987474;28;20136;-80
2023/05/14 03:32:14;;;;;;;14.43;10.27;;;;;;;;;;4989830;28;20153;-80
2023/05/14 03:34:40;;;;;;;16.83;9.50;;;;;;;;;;4981657;28;20184;-80
2023/05/14 03:37:06;;;;;;;17.45;10.18;;;;;;;;;;4973219;28;20085;-81
2023/05/14 03:39:32;;;;;;;17.48;9.32;;;;;;;;;;4970452;28;20545;-78
2023/05/14 03:41:58;;;;;;;15.65;9.18;;;;;;;;;;4970850;28;20096;-79
2023/05/14 03:44:25;;;;;;;21.55;10.88;;;;;;;;;;4950645;28;20046;-79
2023/05/14 03:46:51;;;;;;;16.77;9.95;;;;;;;;;;4970269;28;20046;-79
2023/05/14 03:49:17;;;;;;;14.13;10.32;;;;;;;;;;4949152;28;20053;-80
2023/05/14 03:51:43;;;;;;;22.63;12.63;;;;;;;;;;4982693;28;20385;-84
2023/05/14 03:54:09;;;;;;;26.67;12.45;;;;;;;;;;4983118;28;20082;-86
2023/05/14 03:56:35;;;;;;;27.45;14.60;;;;;;;;;;4972590;28;20132;-83
2023/05/14 03:59:01;;;;;;;21.17;9.20;;;;;;;;;;4965008;28;20045;-85
2023/05/14 04:01:27;;;;;;;22.00;8.57;;;;;;;;;;4978009;28;20035;-81
2023/05/14 04:03:53;;;;;;;18.08;7.97;;;;;;;;;;4987628;28;20110;-82
2023/05/14 04:06:19;;;;;;;23.88;8.00;;;;;;;;;;4972623;28;20113;-82
2023/05/14 04:08:45;;;;;;;21.52;9.40;;;;;;;;;;4971296;28;20456;-81
2023/05/14 04:11:11;;;;;;;20.50;8.27;;;;;;;;;;4968922;28;20060;-85
2023/05/14 04:13:37;;;;;;;24.10;8.70;;;;;;;;;;4972020;28;20042;-79
2023/05/14 04:16:03;;;;;;;22.02;8.52;;;;;;;;;;4966824;28;20045;-81
2023/05/14 04:18:33;;;;;;;16.50;8.38;;;;;;;;;;4967803;28;20049;-81
2023/05/14 04:20:59;;;;;;;19.50;8.90;;;;;;;;;;4966245;28;20054;-80
2023/05/14 04:23:25;;;;;;;24.98;8.75;;;;;;;;;;4976981;28;20046;-83
2023/05/14 04:25:51;;;;;;;22.70;9.13;;;;;;;;;;4957441;28;20038;-83
2023/05/14 04:28:17;;;;;;;28.92;8.45;;;;;;;;;;4971208;28;20039;-86
2023/05/14 04:30:44;;;;;;;28.83;12.27;;;;;;;;;;4973036;28;20042;-79
2023/05/14 04:33:10;;;;;;;21.90;9.65;;;;;;;;;;4971935;28;20074;-81
2023/05/14 04:35:36;;;;;;;30.77;13.43;;;;;;;;;;4974044;28;20034;-83
2023/05/14 04:38:02;;;;;;;25.13;9.32;;;;;;;;;;4976014;28;20038;-80
2023/05/14 04:40:30;;;;;;;21.15;8.30;;;;;;;;;;4973584;28;20046;-85
2023/05/14 04:42:56;;;;;;;18.80;8.50;;;;;;;;;;4975832;28;20113;-88
2023/05/14 04:45:22;;;;;;;25.17;9.13;;;;;;;;;;4977227;28;20065;-82
2023/05/14 04:47:48;;;;;;;25.65;9.00;;;;;;;;;;4972072;28;20045;-80
2023/05/14 04:50:14;;;;;;;25.88;8.50;;;;;;;;;;4973183;28;20030;-84
2023/05/14 04:52:40;;;;;;;21.63;7.25;;;;;;;;;;4988153;28;21143;-82
2023/05/14 04:55:07;;;;;;;21.95;8.43;;;;;;;;;;4985018;28;20088;-80
2023/05/14 04:57:33;;;;;;;26.95;8.90;;;;;;;;;;4986335;28;20029;-80
2023/05/14 04:59:59;;;;;;;22.88;7.97;;;;;;;;;;4986653;28;20560;-82
2023/05/14 05:02:25;;;;;;;23.63;7.35;;;;;;;;;;4999386;28;20362;-78
2023/05/14 05:04:51;;;;;;;24.40;7.35;;;;;;;;;;4982811;28;20057;-82
2023/05/14 05:07:17;;;;;;;24.73;9.13;;;;;;;;;;4991632;28;20094;-82
2023/05/14 05:09:43;;;;;;;33.08;13.25;;;;;;;;;;4991741;28;20049;-83
2023/05/14 05:12:09;;;;;;;25.55;8.80;;;;;;;;;;4980481;28;20113;-81
2023/05/14 05:14:35;;;;;;;22.58;6.03;;;;;;;;;;4994265;28;20018;-79
2023/05/14 05:17:01;;;;;;;22.88;7.70;;;;;;;;;;4983294;28;20042;-77
2023/05/14 05:19:27;;;;;;;21.50;6.53;;;;;;;;;;4987283;28;20077;-77
2023/05/14 05:21:53;;;;;;;23.95;7.28;;;;;;;;;;4970040;28;20479;-78
2023/05/14 05:24:19;;;;;;;20.98;7.07;;;;;;;;;;4983835;28;20057;-78
2023/05/14 05:26:45;;;;;;;14.60;6.30;;;;;;;;;;4988693;28;20034;-78
2023/05/14 05:29:11;;;;;;;15.52;5.90;;;;;;;;;;4985597;28;20525;-79
2023/05/14 05:31:37;;;;;;;21.45;6.38;;;;;;;;;;4974200;28;20030;-78
2023/05/14 05:34:03;;;;;;;16.63;5.88;;;;;;;;;;4985000;28;20026;-78
2023/05/14 05:36:30;;;;;;;23.67;6.90;;;;;;;;;;4986510;28;20391;-78
2023/05/14 05:38:56;;;;;;;18.33;6.35;;;;;;;;;;4985795;28;20206;-78
2023/05/14 05:41:22;;;;;;;19.88;6.15;;;;;;;;;;4987604;28;20031;-78
2023/05/14 05:43:48;;;;;;;21.17;7.03;;;;;;;;;;4986233;28;20047;-78
2023/05/14 05:46:14;;;;;;;19.63;6.28;;;;;;;;;;4985004;28;20447;-79
2023/05/14 05:48:40;;;;;;;20.20;6.88;;;;;;;;;;4987635;28;20034;-78
2023/05/14 05:51:06;;;;;;;17.30;6.93;;;;;;;;;;4987499;28;20030;-79
2023/05/14 05:53:32;;;;;;;21.38;6.45;;;;;;;;;;4983331;28;20042;-78
2023/05/14 05:55:58;;;;;;;18.42;5.40;;;;;;;;;;4988894;28;20045;-79
2023/05/14 05:58:25;;;;;;;18.17;6.13;;;;;;;;;;4986891;28;20030;-78
2023/05/14 06:00:52;;;;;;;19.48;6.15;;;;;;;;;;4985268;28;20141;-78
2023/05/14 06:03:18;;;;;;;13.80;5.40;;;;;;;;;;4970420;28;20018;-79
2023/05/14 06:05:45;;;;;;;14.88;5.40;;;;;;;;;;4987657;28;20046;-79
2023/05/14 06:08:11;;;;;;;21.77;6.20;;;;;;;;;;4985767;28;20027;-79
2023/05/14 06:10:37;;;;;;;15.77;7.03;;;;;;;;;;4987874;28;20031;-78
2023/05/14 06:13:03;;;;;;;17.30;6.20;;;;;;;;;;4969725;28;20026;-78
2023/05/14 06:15:29;;;;;;;25.67;6.60;;;;;;;;;;4992384;28;20034;-77
2023/05/14 06:17:55;;;;;;;16.92;6.60;;;;;;;;;;4980056;28;20037;-78
2023/05/14 06:20:21;;;;;;;18.30;6.28;;;;;;;;;;4976055;28;20377;-77
2023/05/14 06:22:47;;;;;;;18.88;6.35;;;;;;;;;;4966629;28;20490;-78
2023/05/14 06:25:13;;;;;;;16.95;5.75;;;;;;;;;;4987540;28;20028;-79
2023/05/14 06:27:39;;;;;;;11.05;4.97;;;;;;;;;;4972052;28;20030;-78
2023/05/14 06:30:06;;;;;;;15.82;4.75;;;;;;;;;;4985022;28;20029;-77
2023/05/14 06:32:32;;;;;;;20.50;6.07;;;;;;;;;;4983630;28;20030;-77
2023/05/14 06:34:58;;;;;;;21.02;5.43;;;;;;;;;;4978256;28;20045;-77
2023/05/14 06:37:24;;;;;;;15.73;4.50;;;;;;;;;;4987372;28;20034;-78
2023/05/14 06:39:50;;;;;;;14.40;4.93;;;;;;;;;;4971340;28;20026;-78
2023/05/14 06:42:16;;;;;;;19.95;5.13;;;;;;;;;;4987592;28;20037;-78
2023/05/14 06:44:42;;;;;;;19.67;5.40;;;;;;;;;;4982360;28;20064;-78
2023/05/14 06:47:08;;;;;;;13.18;5.13;;;;;;;;;;4995380;28;20030;-78
2023/05/14 06:49:35;;;;;;;14.10;4.90;;;;;;;;;;4984188;28;20026;-78
2023/05/14 06:52:01;;;;;;;24.17;6.45;;;;;;;;;;4985890;28;20034;-78
2023/05/14 06:54:27;;;;;;;15.00;5.35;;;;;;;;;;4985319;28;20057;-78
2023/05/14 06:56:53;;;;;;;16.23;5.28;;;;;;;;;;4969926;28;20034;-78
2023/05/14 06:59:19;;;;;;;18.42;5.43;;;;;;;;;;4987857;28;20034;-78
2023/05/14 07:01:45;;;;;;;13.27;4.50;;;;;;;;;;4984006;28;20046;-78
2023/05/14 07:04:11;;;;;;;18.10;5.38;;;;;;;;;;4985607;28;20037;-79
2023/05/14 07:06:37;;;;;;;18.80;6.30;;;;;;;;;;4983779;28;20049;-81
2023/05/14 07:09:03;;;;;;;14.35;5.22;;;;;;;;;;4979214;28;20026;-80
2023/05/14 07:11:29;;;;;;;15.57;5.22;;;;;;;;;;4981318;28;20034;-78
2023/05/14 07:13:55;;;;;;;14.50;5.35;;;;;;;;;;4966099;28;20097;-79
2023/05/14 07:16:21;;;;;;;20.38;7.05;;;;;;;;;;4986673;28;20106;-80
2023/05/14 07:18:47;;;;;;;21.45;7.88;;;;;;;;;;4983751;28;20765;-80
2023/05/14 07:21:14;;;;;;;18.98;6.32;;;;;;;;;;4988569;28;20130;-79
2023/05/14 07:23:40;;;;;;;12.48;5.03;;;;;;;;;;4989347;28;20034;-78
2023/05/14 07:26:06;;;;;;;20.23;4.18;;;;;;;;;;4977814;28;20022;-79
2023/05/14 07:28:32;;;;;;;19.77;5.80;;;;;;;;;;4981436;28;20066;-79
2023/05/14 07:30:58;;;;;;;13.85;5.63;;;;;;;;;;4982066;28;20062;-81
2023/05/14 07:33:25;;;;;;;14.35;4.45;;;;;;;;;;4984567;28;20034;-81
2023/05/14 07:35:51;;;;;;;14.52;4.75;;;;;;;;;;4987884;28;20113;-80
2023/05/14 07:38:18;;;;;;;16.30;4.25;;;;;;;;;;4984015;28;20030;-77
2023/05/14 07:40:44;;;;;;;15.60;4.68;;;;;;;;;;4966256;28;20448;-81
2023/05/14 07:43:10;;;;;;;17.35;5.13;;;;;;;;;;4992774;28;20373;-81
2023/05/14 07:45:37;;;;;;;12.05;4.35;;;;;;;;;;4984557;28;20407;-78
2023/05/14 07:48:03;;;;;;;13.05;4.30;;;;;;;;;;4958312;28;20487;-80
2023/05/14 07:50:30;;;;;;;10.98;3.75;;;;;;;;;;4961233;28;20077;-79
2023/05/14 07:52:56;;;;;;;15.95;4.00;;;;;;;;;;4987901;28;20376;-81
2023/05/14 07:55:22;;;;;;;14.98;3.78;;;;;;;;;;4986206;28;20085;-80
2023/05/14 07:57:48;;;;;;;10.68;3.45;;;;;;;;;;4981685;28;20035;-79
2023/05/14 08:00:15;;;;;;;8.43;2.78;;;;;;;;;;4982348;28;20042;-80
2023/05/14 08:02:41;;;;;;;13.40;3.50;;;;;;;;;;4979902;28;20026;-80
2023/05/14 08:05:08;;;;;;;13.38;4.55;;;;;;;;;;4986267;28;20034;-81
2023/05/14 08:07:34;;;;;;;14.13;4.68;;;;;;;;;;4985560;28;20045;-80
2023/05/14 08:10:00;;;;;;;14.57;4.03;;;;;;;;;;4983239;28;20332;-80
2023/05/14 08:12:27;;;;;;;11.73;3.60;;;;;;;;;;4978161;28;20053;-84
2023/05/14 08:14:53;;;;;;;12.60;3.85;;;;;;;;;;4990102;28;20022;-84
2023/05/14 08:17:19;;;;;;;11.00;3.58;;;;;;;;;;4989385;28;20046;-81
2023/05/14 08:19:45;;;;;;;25.55;11.90;;;;;;;;;;4985925;28;20050;-80
2023/05/14 08:22:11;;;;;;;14.35;4.45;;;;;;;;;;4987809;28;20092;-78
2023/05/14 08:24:38;;;;;;;13.13;4.13;;;;;;;;;;4982781;28;20038;-79
2023/05/14 08:27:05;;;;;;;14.93;3.25;;;;;;;;;;4986380;28;20065;-78
2023/05/14 08:29:31;;;;;;;12.73;3.40;;;;;;;;;;4979712;28;20042;-80
2023/05/14 08:31:57;;;;;;;13.35;3.95;;;;;;;;;;4988970;28;20073;-80
2023/05/14 08:34:23;;;;;;;14.18;3.78;;;;;;;;;;4967428;28;20437;-79
2023/05/14 08:36:49;;;;;;;10.60;3.58;;;;;;;;;;4978841;28;20039;-78
2023/05/14 08:39:15;;;;;;;12.05;3.33;;;;;;;;;;4973442;28;20054;-80
2023/05/14 08:41:42;;;;;;;12.73;3.55;;;;;;;;;;4976978;28;20394;-80
2023/05/14 08:44:24;;;;;;;13.27;3.97;;;;;;;;;;4978444;28;20027;-80
2023/05/14 08:46:51;;;;;;;12.38;3.83;;;;;;;;;;4983631;28;20540;-84
2023/05/14 08:49:17;;;;;;;12.25;4.00;;;;;;;;;;4987022;28;20515;-80
2023/05/14 08:51:47;;;;;;;17.80;8.93;;;;;;;;;;4987652;28;20113;-80
2023/05/14 08:54:15;;;;;;;9.50;3.08;;;;;;;;;;4989486;28;20383;-80
2023/05/14 08:56:43;;;;;;;14.93;3.35;;;;;;;;;;4980250;28;20369;-81
2023/05/14 08:59:10;;;;;;;9.05;3.38;;;;;;;;;;4982153;28;20105;-79
2023/05/14 09:01:38;;;;;;;13.60;3.38;;;;;;;;;;4995529;28;20030;-81
2023/05/14 09:04:07;;;;;;;10.98;3.58;;;;;;;;;;4981257;28;20054;-75
2023/05/14 09:06:36;;;;;;;11.50;3.38;;;;;;;;;;4981150;28;20088;-75
2023/05/14 09:09:02;;;;;;;14.93;3.80;;;;;;;;;;4985151;28;20097;-75
2023/05/14 09:11:28;;;;;;;10.38;3.60;;;;;;;;;;4990035;28;20274;-75
2023/05/14 09:13:54;;;;;;;16.05;4.35;;;;;;;;;;4989792;28;20566;-75
2023/05/14 09:16:20;;;;;;;10.43;3.03;;;;;;;;;;4995689;28;20045;-75
2023/05/14 09:18:47;;;;;;;11.90;3.42;;;;;;;;;;4990245;28;20034;-75
2023/05/14 09:21:14;;;;;;;10.43;2.88;;;;;;;;;;4972127;28;20069;-75
2023/05/14 09:23:43;;;;;;;9.43;2.95;;;;;;;;;;4990847;28;20120;-75
2023/05/14 09:26:09;;;;;;;11.23;3.50;;;;;;;;;;4972627;28;20026;-80
2023/05/14 09:28:39;;;;;;;11.77;4.20;;;;;;;;;;4990482;28;20038;-76
2023/05/14 09:31:05;;;;;;;12.90;6.75;;;;;;;;;;4998016;28;20026;-77
2023/05/14 09:33:32;;;;;;;10.20;3.50;;;;;;;;;;4991901;28;20203;-75
2023/05/14 09:35:59;;;;;;;10.73;3.22;;;;;;;;;;4991332;28;20142;-73
2023/05/14 09:38:29;;;;;;;8.20;2.83;;;;;;;;;;4987053;28;20042;-74
2023/05/14 09:40:55;;;;;;;10.30;3.25;;;;;;;;;;4989068;28;20039;-75
2023/05/14 09:43:21;;;;;;;11.88;2.90;;;;;;;;;;4990845;28;20047;-74
2023/05/14 09:45:47;;;;;;;9.30;3.38;;;;;;;;;;4993973;28;20503;-77
2023/05/14 09:48:13;;;;;;;10.18;3.03;;;;;;;;;;4968545;28;20034;-77
2023/05/14 09:50:43;;;;;;;9.27;3.63;;;;;;;;;;4979749;28;20429;-75
2023/05/14 09:53:09;;;;;;;10.35;3.10;;;;;;;;;;4985323;28;20085;-77
2023/05/14 09:55:38;;;;;;;10.05;3.33;;;;;;;;;;4988068;28;20034;-82
2023/05/14 09:58:04;;;;;;;9.82;3.50;;;;;;;;;;4989713;28;20476;-82
2023/05/14 10:00:34;;;;;;;10.57;5.05;;;;;;;;;;4985318;28;20033;-80
2023/05/14 10:03:02;;;;;;;8.13;3.20;;;;;;;;;;4990039;28;20069;-84
2023/05/14 10:05:28;;;;;;;11.15;3.58;;;;;;;;;;4990392;28;20040;-80
2023/05/14 10:07:56;;;;;;;8.80;3.58;;;;;;;;;;4970812;28;20114;-81
2023/05/14 10:10:24;;;;;;;10.80;3.60;;;;;;;;;;4986057;28;20041;-81
2023/05/14 10:12:52;;;;;;;12.35;3.17;;;;;;;;;;4988897;28;20030;-81
2023/05/14 10:15:26;;;;;;;9.93;3.05;;;;;;;;;;4992207;28;20058;-75
2023/05/14 10:17:56;;;;;;;11.50;3.45;;;;;;;;;;4986410;28;20058;-79
2023/05/14 10:20:22;;;;;;;8.75;3.60;;;;;;;;;;4971454;28;20042;-79
2023/05/14 10:22:48;;;;;;;11.07;3.33;;;;;;;;;;4990114;28;20034;-79
2023/05/14 10:25:14;;;;;;;9.27;3.10;;;;;;;;;;4983036;28;20023;-80
2023/05/14 10:27:41;;;;;;;8.93;3.03;;;;;;;;;;4986120;28;20066;-78
2023/05/14 10:30:11;;;;;;;12.02;4.00;;;;;;;;;;4987760;28;20050;-80
2023/05/14 10:32:37;;;;;;;8.50;3.00;;;;;;;;;;4984180;28;20030;-79
2023/05/14 10:35:14;;;;;;;13.30;3.90;;;;;;;;;;4988423;28;20030;-80
2023/05/14 10:37:40;;;;;;;12.45;3.78;;;;;;;;;;4979480;28;20033;-79
2023/05/14 10:40:07;;;;;;;8.68;3.35;;;;;;;;;;4971407;28;20034;-79
2023/05/14 10:42:34;;;;;;;10.27;3.60;;;;;;;;;;4989365;28;20070;-79
2023/05/14 10:45:01;;;;;;;8.27;3.67;;;;;;;;;;4986421;28;20130;-80
2023/05/14 10:47:28;;;;;;;7.10;3.25;;;;;;;;;;4987941;28;20090;-79
2023/05/14 10:49:56;;;;;;;6.05;3.15;;;;;;;;;;4988403;28;20388;-78
2023/05/14 10:52:23;;;;;;;12.13;3.47;;;;;;;;;;4980627;28;20191;-78
2023/05/14 10:55:08;;;;;;;12.80;4.95;;;;;;;;;;4988793;28;20034;-76
2023/05/14 10:57:35;;;;;;;9.02;3.78;;;;;;;;;;4986951;28;20038;-80
2023/05/14 11:00:01;;;;;;;15.35;4.60;;;;;;;;;;4986707;28;20038;-78
2023/05/14 11:02:28;;;;;;;10.25;3.40;;;;;;;;;;4997814;28;20738;-80
2023/05/14 11:05:04;;;;;;;8.05;4.10;;;;;;;;;;4986640;28;20463;-80
2023/05/14 11:07:40;;;;;;;11.80;4.43;;;;;;;;;;4984713;28;20038;-75
2023/05/14 11:10:11;;;;;;;10.07;3.60;;;;;;;;;;4983510;28;20432;-76
2023/05/14 11:12:38;;;;;;;9.50;3.65;;;;;;;;;;4972087;28;20044;-75
2023/05/14 11:15:06;;;;;;;12.45;4.15;;;;;;;;;;4989399;28;20038;-80
2023/05/14 11:17:32;;;;;;;11.52;3.97;;;;;;;;;;4987955;28;20042;-82
2023/05/14 11:19:58;;;;;;;11.88;4.13;;;;;;;;;;4971199;28;20074;-80
2023/05/14 11:22:25;;;;;;;12.02;4.30;;;;;;;;;;4989083;28;20496;-81
2023/05/14 11:24:51;;;;;;;14.20;4.05;;;;;;;;;;4986259;28;20049;-78
2023/05/14 11:27:17;;;;;;;14.25;3.67;;;;;;;;;;4972235;28;20038;-78
2023/05/14 11:29:47;;;;;;;13.38;4.40;;;;;;;;;;4987327;28;20084;-79
2023/05/14 11:32:14;;;;;;;13.82;4.15;;;;;;;;;;4981295;28;20495;-79
2023/05/14 11:34:41;;;;;;;17.15;8.35;;;;;;;;;;4971686;28;20037;-77
2023/05/14 11:37:08;;;;;;;7.30;4.00;;;;;;;;;;4988294;28;20113;-83
2023/05/14 11:39:36;;;;;;;7.60;3.63;;;;;;;;;;4971502;28;20041;-78
2023/05/14 11:42:02;;;;;;;8.68;3.83;;;;;;;;;;4983156;28;20031;-78
2023/05/14 11:44:29;;;;;;;9.80;3.95;;;;;;;;;;4985649;28;20097;-79
2023/05/14 11:46:58;;;;;;;10.02;4.15;;;;;;;;;;4987341;28;20109;-78
2023/05/14 11:49:25;;;;;;;12.95;4.68;;;;;;;;;;4987103;28;20030;-79
2023/05/14 11:52:01;;;;;;;9.73;3.80;;;;;;;;;;4988158;28;20503;-78
2023/05/14 11:54:30;;;;;;;11.10;4.43;;;;;;;;;;4983940;28;20029;-77
2023/05/14 11:56:57;;;;;;;12.40;4.10;;;;;;;;;;4986686;28;20041;-78
2023/05/14 11:59:30;;;;;;;5.43;2.58;;;;;;;;;;4987513;28;20031;-77
2023/05/14 12:01:57;;;;;;;7.95;3.08;;;;;;;;;;4986079;28;20030;-78
2023/05/14 12:04:23;;;;;;;16.40;4.03;;;;;;;;;;4985215;28;20037;-77
2023/05/14 12:06:50;;;;;;;9.05;3.65;;;;;;;;;;4986333;28;20038;-77
2023/05/14 12:09:22;;;;;;;6.90;2.97;;;;;;;;;;4983576;28;20097;-78
2023/05/14 12:11:49;;;;;;;14.18;7.20;;;;;;;;;;4988792;28;20026;-78
2023/05/14 12:14:16;;;;;;;10.73;3.55;;;;;;;;;;4970554;28;20030;-78
2023/05/14 12:16:45;;;;;;;8.50;2.80;;;;;;;;;;4985103;28;20045;-78
2023/05/14 12:19:13;;;;;;;8.55;2.72;;;;;;;;;;4961339;28;20071;-78
2023/05/14 12:21:39;;;;;;;5.35;2.72;;;;;;;;;;4984780;28;20365;-81
2023/05/14 12:24:13;;;;;;;5.90;3.08;;;24.90;99.90;;;;;;5000904;28;20034;-77
2023/05/14 12:26:39;;;;;;;8.63;2.83;;;;;;;;;;4968066;28;20479;-77
2023/05/14 12:29:06;;;;;;;11.27;5.07;;;;;;;;;;4985993;28;20160;-77
2023/05/14 12:31:35;;;;;;;9.57;4.43;;;;;;;;;;4987525;28;20034;-78
2023/05/14 12:34:02;;;;;;;10.70;3.45;;;;;;;;;;4987576;28;20125;-78
2023/05/14 12:36:29;;;;;;;8.80;3.53;;;;;;;;;;4985417;28;20035;-78
2023/05/14 12:39:00;;;;;;;8.48;3.50;;;;;;;;;;4986603;28;20066;-77
2023/05/14 12:41:26;;;;;;;12.13;3.45;;;;;;;;;;4988264;28;20046;-78
2023/05/14 12:43:52;;;;;;;8.98;3.83;;;;;;;;;;4957694;28;20038;-77
2023/05/14 12:46:18;;;;;;;11.80;3.38;;;;;;;;;;4984028;28;20058;-78
2023/05/14 12:48:45;;;;;;;6.00;3.65;;;;;;;;;;4981791;28;20046;-78
2023/05/14 12:51:11;;;;;;;9.68;2.95;;;;;;;;;;4990472;28;20424;-79
2023/05/14 12:53:37;;;;;;;11.30;4.07;;;;;;;;;;4992657;28;20476;-77
2023/05/14 12:56:03;;;;;;;8.95;3.05;;;;;;;;;;4977414;28;20101;-78
2023/05/14 12:58:29;;;;;;;8.25;3.10;;;;;;;;;;4974141;28;20038;-77
2023/05/14 13:00:55;;;;;;;5.70;2.95;;;;;;;;;;4981206;28;20042;-76
2023/05/14 13:03:21;;;;;;;11.95;4.47;;;;;;;;;;4976852;28;20042;-79
2023/05/14 13:05:47;;;;;;;13.57;3.15;;;;;;;;;;4976170;28;21678;-84
2023/05/14 13:08:16;;;;;;;10.02;3.30;;;;;;;;;;4979088;28;20038;-83
2023/05/14 13:10:43;;;;;;;12.48;3.30;;;;;;;;;;4978831;28;20384;-78
2023/05/14 13:13:10;;;;;;;10.20;3.50;;;;;;;;;;4979129;28;20162;-79
2023/05/14 13:15:36;;;;;;;7.63;3.13;;;;;;;;;;4981789;28;20057;-79
2023/05/14 13:18:02;;;;;;;12.82;4.63;;;;;;;;;;4978420;28;20038;-80
2023/05/14 13:20:29;;;;;;;11.43;4.00;;;;;;;;;;4987052;28;20045;-81
2023/05/14 13:22:56;;;;;;;9.90;3.15;;;;;;;;;;4991624;28;20030;-80
2023/05/14 13:25:22;;;;;;;8.95;3.15;;;;;;;;;;4990140;28;20220;-80
2023/05/14 13:27:49;;;;;;;5.75;2.85;;;;;;;;;;4989622;28;20050;-81
2023/05/14 13:30:19;;;;;;;10.88;3.33;;;;;;;;;;4992440;28;20408;-80
2023/05/14 13:32:45;;;;;;;10.02;3.63;;;;;;;;;;4992927;28;20080;-79
2023/05/14 13:35:11;;;;;;;12.52;3.03;;;;;;;;;;4991090;28;20038;-81
2023/05/14 13:37:37;;;;;;;10.15;3.13;;;;;;;;;;4990826;28;20026;-79
2023/05/14 13:40:06;;;;;;;10.02;3.15;;;;;;;;;;4981204;28;20049;-78
2023/05/14 13:42:32;;;;;;;9.98;3.08;;;;;;;;;;4978692;28;20512;-75
2023/05/14 13:44:59;;;;;;;11.10;3.70;;;;;;;;;;4981034;28;20039;-77
2023/05/14 13:47:25;;;;;;;9.00;3.20;;;;;;;;;;4981606;28;20034;-80
2023/05/14 13:49:55;;;;;;;6.55;2.63;;;;;;;;;;4980546;28;20043;-78
2023/05/14 13:52:21;;;;;;;7.80;3.17;;;;;;;;;;4972834;28;20031;-77
2023/05/14 13:54:47;;;;;;;7.22;2.80;;;;;;;;;;4975695;28;20390;-74
2023/05/14 13:57:13;;;;;;;2.28;2.00;;;;;;;;;;4980675;28;20031;-80
2023/05/14 13:59:39;;;;;;;9.32;2.63;;;;;;;;;;4990366;28;20061;-79
2023/05/14 14:02:05;;;;;;;5.95;2.50;;;;;;;;;;4987706;28;20034;-81
2023/05/14 14:04:31;;;;;;;5.13;2.60;;;;;;;;;;4986968;28;20712;-82
2023/05/14 14:06:57;;;;;;;6.60;2.25;;;;;;;;;;4990248;28;20101;-81
2023/05/14 14:09:24;;;;;;;8.80;2.25;;;;;;;;;;4991614;28;20404;-79
2023/05/14 14:11:50;;;;;;;5.00;2.58;;;;;;;;;;4985051;28;20038;-82
2023/05/14 14:14:16;;;;;;;10.35;2.08;;;;;;;;;;4989233;28;20030;-80
2023/05/14 14:16:42;;;;;;;8.55;2.03;;;;;;;;;;4990163;28;20116;-79
2023/05/14 14:19:09;;;;;;;5.95;2.40;;;;;;;;;;4981137;28;20039;-82
2023/05/14 14:21:35;;;;;;;11.65;5.30;;;;;;;;;;4986567;28;20037;-83
2023/05/14 14:24:01;;;;;;;16.77;7.40;;;;;;;;;;4984291;28;20498;-81
2023/05/14 14:26:28;;;;;;;11.85;3.35;;;;;;;;;;4975927;28;20037;-76
2023/05/14 14:28:54;;;;;;;11.45;3.00;;;;;;;;;;4968922;28;20543;-77